createdAt,value
2019-03-29T00:02:11.152Z,7.73
2019-03-29T00:06:57.373Z,5.60
2019-03-29T00:11:43.698Z,5.37
2019-03-29T00:16:30.243Z,6.17
2019-03-29T00:21:16.469Z,5.53
2019-03-29T00:26:02.773Z,5.67
2019-03-29T00:30:49.010Z,7.40
2019-03-29T00:35:35.274Z,4.70
2019-03-29T00:40:21.491Z,4.67
2019-03-29T00:45:08.841Z,5.17
2019-03-29T00:49:55.104Z,5.73
2019-03-29T00:54:41.390Z,6.47
2019-03-29T00:59:27.682Z,7.00
2019-03-29T01:04:13.941Z,6.97
2019-03-29T01:09:00.220Z,7.53
2019-03-29T01:13:46.594Z,9.93
2019-03-29T01:18:32.912Z,8.20
2019-03-29T01:23:19.273Z,5.77
2019-03-29T01:28:05.765Z,8.13
2019-03-29T01:32:52.070Z,9.90
2019-03-29T01:37:38.374Z,8.03
2019-03-29T01:42:24.733Z,7.77
2019-03-29T01:47:30.028Z,8.20
2019-03-29T01:52:16.682Z,6.07
2019-03-29T01:57:03.167Z,6.10
2019-03-29T02:01:49.489Z,6.97
2019-03-29T02:06:35.890Z,5.50
2019-03-29T02:11:22.338Z,6.90
2019-03-29T02:16:08.756Z,7.90
2019-03-29T02:20:55.192Z,6.37
2019-03-29T02:25:42.430Z,7.13
2019-03-29T02:30:30.971Z,8.03
2019-03-29T02:35:17.754Z,6.83
2019-03-29T02:40:04.086Z,6.40
2019-03-29T02:44:50.330Z,7.87
2019-03-29T02:49:36.583Z,5.97
2019-03-29T02:54:22.861Z,7.70
2019-03-29T02:59:09.081Z,6.20
2019-03-29T03:03:55.326Z,8.77
2019-03-29T03:08:41.604Z,6.23
2019-03-29T03:13:27.835Z,6.03
2019-03-29T03:18:14.094Z,4.73
2019-03-29T03:23:00.389Z,7.30
2019-03-29T03:27:47.122Z,7.13
2019-03-29T03:32:33.393Z,6.83
2019-03-29T03:37:19.648Z,5.73
2019-03-29T03:42:06.393Z,6.87
2019-03-29T03:46:52.612Z,7.70
2019-03-29T03:51:38.923Z,6.77
2019-03-29T03:56:26.805Z,6.10
2019-03-29T04:01:13.323Z,6.10
2019-03-29T04:06:00.014Z,8.00
2019-03-29T04:10:46.311Z,7.67
2019-03-29T04:15:32.623Z,6.43
2019-03-29T04:20:19.036Z,7.30
2019-03-29T04:25:05.838Z,7.20
2019-03-29T04:29:52.025Z,7.70
2019-03-29T04:34:38.313Z,7.37
2019-03-29T04:39:24.622Z,8.83
2019-03-29T04:44:10.858Z,6.40
2019-03-29T04:48:57.104Z,6.17
2019-03-29T04:53:43.341Z,11.30
2019-03-29T04:58:29.633Z,6.70
2019-03-29T05:03:15.928Z,8.90
2019-03-29T05:08:02.187Z,9.27
2019-03-29T05:12:48.445Z,8.60
2019-03-29T05:17:34.816Z,7.60
2019-03-29T05:22:21.043Z,5.90
2019-03-29T05:27:07.349Z,8.07
2019-03-29T05:31:53.820Z,9.67
2019-03-29T05:36:40.283Z,7.67
2019-03-29T05:41:26.583Z,5.47
2019-03-29T05:46:13.040Z,9.07
2019-03-29T05:50:59.292Z,6.97
2019-03-29T05:55:48.171Z,20.43
2019-03-29T06:00:33.502Z,10.10
2019-03-29T06:05:19.819Z,9.10
2019-03-29T06:10:06.788Z,7.70
2019-03-29T06:14:53.014Z,10.20
2019-03-29T06:19:39.346Z,7.70
2019-03-29T06:24:25.578Z,19.13
2019-03-29T06:29:11.816Z,13.93
2019-03-29T06:33:58.201Z,16.57
2019-03-29T06:38:47.065Z,21.57
2019-03-29T06:43:33.415Z,22.67
2019-03-29T06:48:19.734Z,20.17
2019-03-29T06:53:06.148Z,24.50
2019-03-29T06:57:52.442Z,31.07
2019-03-29T07:02:38.659Z,21.77
2019-03-29T07:07:24.910Z,23.17
2019-03-29T07:12:11.189Z,27.67
2019-03-29T07:16:57.457Z,16.33
2019-03-29T07:21:43.753Z,11.37
2019-03-29T07:26:30.049Z,12.00
2019-03-29T07:31:16.282Z,19.87
2019-03-29T07:36:02.494Z,17.37
2019-03-29T07:40:48.811Z,20.00
2019-03-29T07:45:36.160Z,16.00
2019-03-29T07:50:22.469Z,11.27
2019-03-29T07:55:09.585Z,11.20
2019-03-29T07:59:55.828Z,17.60
2019-03-29T08:04:42.094Z,16.07
2019-03-29T08:09:28.338Z,8.40
2019-03-29T08:14:14.995Z,12.57
2019-03-29T08:19:01.587Z,15.93
2019-03-29T08:23:47.861Z,13.27
2019-03-29T08:28:34.154Z,8.97
2019-03-29T08:33:20.454Z,6.23
2019-03-29T08:38:06.688Z,6.13
2019-03-29T08:42:53.021Z,10.63
2019-03-29T08:47:39.243Z,9.33
2019-03-29T08:52:25.529Z,6.07
2019-03-29T08:57:11.777Z,4.33
2019-03-29T09:01:58.503Z,4.87
2019-03-29T09:06:53.217Z,5.17
2019-03-29T09:11:33.344Z,4.53
2019-03-29T09:16:19.579Z,7.77
2019-03-29T09:21:06.080Z,3.73
2019-03-29T09:25:52.770Z,4.97
2019-03-29T09:30:39.100Z,5.97
2019-03-29T09:35:25.319Z,4.97
2019-03-29T09:40:14.121Z,5.47
2019-03-29T09:45:00.697Z,5.83
2019-03-29T09:49:46.958Z,6.47
2019-03-29T09:54:33.200Z,8.70
2019-03-29T09:59:22.901Z,4.77
2019-03-29T10:04:07.371Z,8.77
2019-03-29T10:08:53.709Z,3.90
2019-03-29T10:13:40.111Z,7.40
2019-03-29T10:18:26.488Z,8.00
2019-03-29T10:23:13.347Z,7.55
2019-03-29T10:27:59.954Z,11.55
2019-03-29T10:32:46.277Z,11.67
2019-03-29T10:37:32.974Z,8.87
2019-03-29T10:42:19.361Z,9.00
2019-03-29T10:47:05.914Z,8.07
2019-03-29T10:51:52.927Z,10.60
2019-03-29T10:56:39.327Z,10.60
2019-03-29T11:01:26.130Z,9.10
2019-03-29T11:06:12.772Z,13.43
2019-03-29T11:10:59.502Z,9.63
2019-03-29T11:15:45.966Z,11.20
2019-03-29T11:20:32.203Z,6.80
2019-03-29T11:25:18.939Z,8.83
2019-03-29T11:30:07.163Z,11.80
2019-03-29T11:34:53.781Z,8.83
2019-03-29T11:39:40.303Z,9.55
2019-03-29T11:44:29.869Z,8.43
2019-03-29T11:49:15.482Z,8.95
2019-03-29T11:54:02.283Z,11.95
2019-03-29T11:58:49.123Z,10.18
2019-03-29T12:03:35.487Z,10.75
2019-03-29T12:08:22.339Z,7.67
2019-03-29T12:13:11.169Z,8.65
2019-03-29T12:17:59.614Z,9.15
2019-03-29T12:22:45.947Z,7.65
2019-03-29T12:27:32.511Z,8.33
2019-03-29T12:32:19.661Z,10.90
2019-03-29T12:37:06.923Z,8.73
2019-03-29T12:41:53.544Z,7.17
2019-03-29T12:46:40.077Z,6.60
2019-03-29T12:51:26.554Z,14.80
2019-03-29T12:56:13.298Z,6.58
2019-03-29T13:01:01.171Z,9.38
2019-03-29T13:05:47.950Z,6.70
2019-03-29T13:10:34.495Z,7.22
2019-03-29T13:15:21.677Z,8.20
2019-03-29T13:20:09.923Z,10.28
2019-03-29T13:24:57.673Z,8.20
2019-03-29T13:29:44.335Z,7.33
2019-03-29T13:34:31.455Z,7.12
2019-03-29T13:39:18.516Z,10.18
2019-03-29T13:44:05.194Z,9.15
2019-03-29T13:48:51.873Z,10.25
2019-03-29T13:53:38.989Z,10.38
2019-03-29T13:58:25.556Z,11.00
2019-03-29T14:03:12.090Z,9.00
2019-03-29T14:07:59.044Z,8.18
2019-03-29T14:12:45.565Z,11.40
2019-03-29T14:17:32.105Z,11.05
2019-03-29T14:22:37.415Z,12.90
2019-03-29T14:27:23.979Z,10.50
2019-03-29T14:32:10.587Z,8.33
2019-03-29T14:36:59.348Z,9.63
2019-03-29T14:41:45.617Z,6.95
2019-03-29T14:46:32.062Z,9.08
2019-03-29T14:51:18.554Z,8.53
2019-03-29T14:56:05.257Z,9.98
2019-03-29T15:00:52.450Z,9.60
2019-03-29T15:05:39.127Z,8.28
2019-03-29T15:10:28.334Z,6.37
2019-03-29T15:15:15.007Z,9.30
2019-03-29T15:20:01.409Z,12.30
2019-03-29T15:24:48.058Z,9.45
2019-03-29T15:29:34.743Z,12.53
2019-03-29T15:34:21.861Z,7.90
2019-03-29T15:39:09.524Z,7.85
2019-03-29T15:43:56.238Z,5.37
2019-03-29T15:48:42.764Z,5.78
2019-03-29T15:53:29.408Z,5.30
2019-03-29T15:58:16.085Z,6.70
2019-03-29T16:03:02.917Z,6.65
2019-03-29T16:07:49.246Z,4.90
2019-03-29T16:12:35.730Z,23.85
2019-03-29T16:17:22.655Z,5.58
2019-03-29T16:22:09.259Z,7.45
2019-03-29T16:26:56.062Z,5.90
2019-03-29T16:31:42.779Z,6.75
2019-03-29T16:36:29.498Z,5.25
2019-03-29T16:41:16.073Z,13.35
2019-03-29T16:46:02.736Z,5.67
2019-03-29T16:50:49.206Z,4.58
2019-03-29T16:55:35.751Z,4.45
2019-03-29T17:00:22.169Z,4.53
2019-03-29T17:05:10.013Z,6.20
2019-03-29T17:09:56.655Z,4.63
2019-03-29T17:14:43.093Z,6.57
2019-03-29T17:19:29.487Z,5.73
2019-03-29T17:24:16.153Z,6.60
2019-03-29T17:29:02.499Z,8.33
2019-03-29T17:33:48.934Z,10.87
2019-03-29T17:38:35.393Z,4.87
2019-03-29T17:43:21.892Z,9.70
2019-03-29T17:48:08.449Z,7.63
2019-03-29T17:52:54.842Z,18.50
2019-03-29T17:57:41.348Z,17.67
2019-03-29T18:02:27.749Z,11.90
2019-03-29T18:07:14.457Z,9.00
2019-03-29T18:12:01.629Z,11.90
2019-03-29T18:16:48.118Z,10.07
2019-03-29T18:21:34.579Z,14.17
2019-03-29T18:26:21.191Z,15.90
2019-03-29T18:31:09.107Z,11.10
2019-03-29T18:35:56.845Z,11.80
2019-03-29T18:40:45.907Z,22.37
2019-03-29T18:45:32.571Z,18.63
2019-03-29T18:50:19.124Z,16.77
2019-03-29T18:55:05.630Z,18.33
2019-03-29T18:59:52.097Z,18.23
2019-03-29T19:04:38.666Z,21.67
2019-03-29T19:09:25.404Z,29.50
2019-03-29T19:14:11.974Z,18.03
2019-03-29T19:19:09.816Z,16.77
2019-03-29T19:23:47.642Z,29.23
2019-03-29T19:28:34.449Z,21.20
2019-03-29T19:33:20.900Z,22.27
2019-03-29T19:38:07.381Z,23.37
2019-03-29T19:42:53.959Z,15.27
2019-03-29T19:47:40.395Z,17.33
2019-03-29T19:52:26.782Z,21.83
2019-03-29T19:57:13.234Z,17.70
2019-03-29T20:01:59.790Z,14.30
2019-03-29T20:06:46.455Z,11.90
2019-03-29T20:11:33.164Z,10.00
2019-03-29T20:16:19.587Z,12.17
2019-03-29T20:21:06.020Z,13.97
2019-03-29T20:25:52.570Z,12.30
2019-03-29T20:30:39.322Z,15.00
2019-03-29T20:35:26.047Z,20.07
2019-03-29T20:40:13.359Z,24.53
2019-03-29T20:45:00.055Z,18.97
2019-03-29T20:49:46.653Z,12.60
2019-03-29T20:54:33.260Z,25.70
2019-03-29T20:59:19.983Z,18.37
2019-03-29T21:04:06.509Z,16.27
2019-03-29T21:08:53.025Z,16.03
2019-03-29T21:13:39.463Z,16.80
2019-03-29T21:18:25.996Z,14.83
2019-03-29T21:23:12.404Z,12.67
2019-03-29T21:27:59.100Z,13.87
2019-03-29T21:32:45.733Z,11.80
2019-03-29T21:37:32.288Z,9.27
2019-03-29T21:42:18.564Z,9.70
2019-03-29T21:47:05.559Z,12.60
2019-03-29T21:51:52.060Z,10.07
2019-03-29T21:56:38.359Z,13.53
2019-03-29T22:01:25.057Z,15.70
2019-03-29T22:06:11.568Z,15.30
2019-03-29T22:10:57.930Z,18.27
2019-03-29T22:15:44.446Z,14.27
2019-03-29T22:20:30.715Z,16.00
2019-03-29T22:25:17.162Z,14.57
2019-03-29T22:30:05.392Z,12.37
2019-03-29T22:34:51.789Z,17.73
2019-03-29T22:39:38.163Z,11.83
2019-03-29T22:44:24.583Z,11.93
2019-03-29T22:49:10.903Z,12.03
2019-03-29T22:53:57.366Z,18.57
2019-03-29T22:58:43.704Z,18.27
2019-03-29T23:03:30.248Z,18.10
2019-03-29T23:08:17.074Z,20.87
2019-03-29T23:13:03.720Z,15.57
2019-03-29T23:17:50.335Z,16.70
2019-03-29T23:22:36.814Z,12.73
2019-03-29T23:27:23.204Z,13.17
2019-03-29T23:32:09.669Z,13.33
2019-03-29T23:36:56.163Z,14.20
2019-03-29T23:41:42.508Z,17.33
2019-03-29T23:46:28.781Z,15.70
2019-03-29T23:51:14.996Z,17.00
2019-03-29T23:56:01.237Z,14.83
